createdAt,value
2022-10-02T00:02:12.127Z,100904.91
2022-10-02T00:04:51.679Z,100910.91
2022-10-02T00:07:20.580Z,100902.56
2022-10-02T00:09:54.779Z,100904.50
2022-10-02T00:12:25.030Z,100903.16
2022-10-02T00:14:56.791Z,100911.97
2022-10-02T00:17:29.585Z,100911.81
2022-10-02T00:19:56.668Z,100914.16
2022-10-02T00:22:34.654Z,100914.03
2022-10-02T00:25:50.447Z,100916.72
2022-10-02T00:28:27.058Z,100917.69
2022-10-02T00:31:13.979Z,100920.47
2022-10-02T00:33:52.351Z,100917.53
2022-10-02T00:36:18.897Z,100922.03
2022-10-02T00:38:57.450Z,100923.69
2022-10-02T00:41:49.137Z,100926.06
2022-10-02T00:44:35.013Z,100916.25
2022-10-02T00:47:12.741Z,100918.28
2022-10-02T00:50:00.111Z,100917.53
2022-10-02T00:52:58.343Z,100925.44
2022-10-02T00:55:30.980Z,100933.94
2022-10-02T00:58:02.556Z,100939.13
2022-10-02T01:00:29.672Z,100920.94
2022-10-02T01:03:20.607Z,100929.91
2022-10-02T01:05:47.577Z,100943.59
2022-10-02T01:08:14.648Z,100941.94
2022-10-02T01:10:41.900Z,100946.78
2022-10-02T01:13:08.884Z,100948.47
2022-10-02T01:15:44.998Z,100959.56
2022-10-02T01:18:15.117Z,100962.06
2022-10-02T01:20:45.404Z,100961.75
2022-10-02T01:23:30.583Z,100972.75
2022-10-02T01:25:59.165Z,100965.06
2022-10-02T01:28:29.162Z,100967.09
2022-10-02T01:31:07.757Z,100968.28
2022-10-02T01:33:36.511Z,100960.53
2022-10-02T01:36:03.380Z,100950.16
2022-10-02T01:38:30.459Z,100965.16
2022-10-02T01:40:57.388Z,100963.28
2022-10-02T01:43:34.285Z,100966.31
2022-10-02T01:46:35.489Z,100967.47
2022-10-02T01:49:24.022Z,100955.97
2022-10-02T01:52:02.539Z,100965.59
2022-10-02T01:54:58.264Z,100963.75
2022-10-02T01:57:52.133Z,100961.56
2022-10-02T02:00:24.661Z,100946.84
2022-10-02T02:02:57.034Z,100953.56
2022-10-02T02:05:32.555Z,100953.72
2022-10-02T02:08:15.306Z,100957.50
2022-10-02T02:10:47.937Z,100952.31
2022-10-02T02:13:26.680Z,100947.97
2022-10-02T02:16:02.113Z,100933.78
2022-10-02T02:18:39.029Z,100958.47
2022-10-02T02:21:14.823Z,100960.72
2022-10-02T02:23:42.368Z,100965.91
2022-10-02T02:26:12.605Z,100961.09
2022-10-02T02:28:46.659Z,100961.09
2022-10-02T02:31:18.087Z,100957.28
2022-10-02T02:34:06.663Z,100962.97
2022-10-02T02:36:37.954Z,100955.66
2022-10-02T02:39:10.349Z,100945.81
2022-10-02T02:41:46.204Z,100948.56
2022-10-02T02:44:18.173Z,100941.75
2022-10-02T02:47:04.862Z,100953.09
2022-10-02T02:49:44.823Z,100955.75
2022-10-02T02:52:29.717Z,100945.94
2022-10-02T02:55:08.027Z,100943.22
2022-10-02T02:57:45.980Z,100944.94
2022-10-02T03:00:15.714Z,100943.94
2022-10-02T03:02:42.448Z,100948.25
2022-10-02T03:05:17.716Z,100952.56
2022-10-02T03:07:59.800Z,100952.38
2022-10-02T03:10:46.217Z,100944.97
2022-10-02T03:13:50.149Z,100953.63
2022-10-02T03:16:54.038Z,100945.41
2022-10-02T03:19:42.530Z,100943.91
2022-10-02T03:22:36.409Z,100937.47
2022-10-02T03:25:05.949Z,100940.91
2022-10-02T03:27:52.690Z,100944.38
2022-10-02T03:30:20.792Z,100940.19
2022-10-02T03:32:53.797Z,100958.28
2022-10-02T03:35:22.702Z,100957.75
2022-10-02T03:37:53.019Z,100948.34
2022-10-02T03:40:26.753Z,100956.84
2022-10-02T03:42:58.237Z,100946.88
2022-10-02T03:45:49.485Z,100944.84
2022-10-02T03:48:12.845Z,100948.19
2022-10-02T03:50:39.516Z,100948.78
2022-10-02T03:53:18.858Z,100947.19
2022-10-02T03:56:09.347Z,100947.19
2022-10-02T03:58:41.227Z,100940.19
2022-10-02T04:01:14.166Z,100946.38
2022-10-02T04:03:53.430Z,100943.03
2022-10-02T04:06:44.018Z,100946.13
2022-10-02T04:09:22.568Z,100948.66
2022-10-02T04:12:16.748Z,100949.09
2022-10-02T04:14:55.661Z,100939.06
2022-10-02T04:17:27.904Z,100955.72
2022-10-02T04:20:03.892Z,100944.31
2022-10-02T04:22:37.421Z,100963.16
2022-10-02T04:25:12.794Z,100960.66
2022-10-02T04:27:57.004Z,100958.97
2022-10-02T04:30:23.902Z,100973.97
2022-10-02T04:32:51.089Z,100962.47
2022-10-02T04:36:01.021Z,100968.56
2022-10-02T04:38:55.831Z,100984.25
2022-10-02T04:41:32.979Z,100979.59
2022-10-02T04:44:35.791Z,100993.06
2022-10-02T04:47:05.422Z,100990.41
2022-10-02T04:49:32.041Z,100990.69
2022-10-02T04:52:07.646Z,101004.16
2022-10-02T04:55:02.228Z,100997.16
2022-10-02T04:57:38.058Z,101000.81
2022-10-02T05:00:15.471Z,101008.94
2022-10-02T05:03:11.355Z,101000.13
2022-10-02T05:05:56.811Z,101008.94
2022-10-02T05:08:40.088Z,101006.13
2022-10-02T05:11:45.704Z,101016.25
2022-10-02T05:14:23.232Z,101023.25
2022-10-02T05:17:08.668Z,101023.09
2022-10-02T05:19:47.800Z,101026.28
2022-10-02T05:22:32.392Z,101031.31
2022-10-02T05:25:17.284Z,101036.88
2022-10-02T05:28:07.560Z,101031.63
2022-10-02T05:31:13.276Z,101037.63
2022-10-02T05:33:41.099Z,101036.19
2022-10-02T05:36:21.705Z,101030.19
2022-10-02T05:39:09.187Z,101033.94
2022-10-02T05:41:47.864Z,101017.28
2022-10-02T05:44:23.285Z,101025.78
2022-10-02T05:47:05.723Z,101023.81
2022-10-02T05:49:41.596Z,101025.16
2022-10-02T05:52:13.764Z,101017.84
2022-10-02T05:54:52.529Z,101034.38
2022-10-02T05:57:31.892Z,101038.53
2022-10-02T06:00:04.870Z,101031.13
2022-10-02T06:02:43.581Z,101044.16
2022-10-02T06:05:26.062Z,101040.50
2022-10-02T06:07:58.667Z,101039.50
2022-10-02T06:10:32.378Z,101045.34
2022-10-02T06:13:07.198Z,101051.38
2022-10-02T06:15:43.098Z,101049.06
2022-10-02T06:18:13.238Z,101056.59
2022-10-02T06:20:47.396Z,101062.09
2022-10-02T06:23:24.640Z,101073.13
2022-10-02T06:26:00.434Z,101075.03
2022-10-02T06:28:39.160Z,101088.25
2022-10-02T06:31:19.474Z,101082.47
2022-10-02T06:33:46.351Z,101079.34
2022-10-02T06:36:30.897Z,101090.72
2022-10-02T06:39:22.792Z,101090.13
2022-10-02T06:41:55.287Z,101090.97
2022-10-02T06:44:59.322Z,101094.16
2022-10-02T06:47:35.472Z,101099.16
2022-10-02T06:50:28.242Z,101102.34
2022-10-02T06:53:19.240Z,101101.63
2022-10-02T06:56:05.435Z,101096.81
2022-10-02T06:58:55.339Z,101108.94
2022-10-02T07:01:40.368Z,101103.50
2022-10-02T07:04:19.247Z,101105.19
2022-10-02T07:07:10.619Z,101102.06
2022-10-02T07:09:55.696Z,101102.78
2022-10-02T07:12:47.855Z,101106.00
2022-10-02T07:15:46.923Z,101116.69
2022-10-02T07:18:34.770Z,101105.91
2022-10-02T07:21:26.258Z,101113.59
2022-10-02T07:24:11.223Z,101104.13
2022-10-02T07:26:45.848Z,101099.81
2022-10-02T07:29:54.515Z,101095.78
2022-10-02T07:32:21.048Z,101097.50
2022-10-02T07:35:06.157Z,101096.19
2022-10-02T07:37:57.472Z,101099.19
2022-10-02T07:40:47.851Z,101102.38
2022-10-02T07:43:39.722Z,101095.88
2022-10-02T07:46:24.628Z,101100.53
2022-10-02T07:49:06.228Z,101102.56
2022-10-02T07:51:47.609Z,101083.50
2022-10-02T07:54:17.435Z,101094.88
2022-10-02T07:56:47.414Z,101109.41
2022-10-02T07:59:17.661Z,101096.53
2022-10-02T08:01:47.777Z,101107.91
2022-10-02T08:04:34.631Z,101108.25
2022-10-02T08:07:05.438Z,101119.78
2022-10-02T08:09:42.229Z,101124.63
2022-10-02T08:12:34.080Z,101120.59
2022-10-02T08:15:02.802Z,101132.34
2022-10-02T08:17:33.032Z,101136.69
2022-10-02T08:20:19.862Z,101144.19
2022-10-02T08:22:51.943Z,101145.72
2022-10-02T08:25:39.951Z,101139.34
2022-10-02T08:28:19.737Z,101139.97
2022-10-02T08:30:46.977Z,101114.75
2022-10-02T08:33:22.345Z,101141.63
2022-10-02T08:36:16.900Z,101125.22
2022-10-02T08:38:54.594Z,101132.25
2022-10-02T08:42:15.827Z,101136.41
2022-10-02T08:45:24.326Z,101132.03
2022-10-02T08:48:28.575Z,101136.31
2022-10-02T08:51:20.830Z,101138.59
2022-10-02T08:54:09.149Z,101130.00
2022-10-02T08:56:58.644Z,101126.16
2022-10-02T09:00:02.948Z,101122.59
2022-10-02T09:02:38.648Z,101130.81
2022-10-02T09:05:26.057Z,101126.09
2022-10-02T09:07:56.773Z,101136.00
2022-10-02T09:10:48.007Z,101135.25
2022-10-02T09:13:29.834Z,101138.91
2022-10-02T09:16:19.770Z,101134.53
2022-10-02T09:19:21.522Z,101147.56
2022-10-02T09:21:48.348Z,101145.66
2022-10-02T09:24:48.562Z,101143.88
2022-10-02T09:27:36.590Z,101139.41
2022-10-02T09:30:23.433Z,101157.94
2022-10-02T09:33:11.630Z,101149.13
2022-10-02T09:36:08.236Z,101158.94
2022-10-02T09:38:49.964Z,101155.16
2022-10-02T09:41:37.901Z,101157.56
2022-10-02T09:44:29.230Z,101139.59
2022-10-02T09:46:55.809Z,101150.63
2022-10-02T09:49:42.411Z,101130.84
2022-10-02T09:52:41.943Z,101137.34
2022-10-02T09:55:50.243Z,101138.81
2022-10-02T09:58:47.695Z,101113.56
2022-10-02T10:01:26.592Z,101136.06
2022-10-02T10:04:33.840Z,101131.31
2022-10-02T10:07:20.229Z,101129.72
2022-10-02T10:10:11.465Z,101123.91
2022-10-02T10:12:38.793Z,101119.84
2022-10-02T10:15:43.070Z,101113.47
2022-10-02T10:18:28.512Z,101124.34
2022-10-02T10:21:04.188Z,101140.44
2022-10-02T10:23:49.844Z,101142.06
2022-10-02T10:26:22.282Z,101135.19
2022-10-02T10:28:59.669Z,101140.50
2022-10-02T10:31:48.513Z,101150.84
2022-10-02T10:34:46.286Z,101155.66
2022-10-02T10:37:50.996Z,101150.75
2022-10-02T10:40:38.192Z,101152.31
2022-10-02T10:43:08.639Z,101168.19
2022-10-02T10:45:54.389Z,101157.47
2022-10-02T10:48:35.006Z,101162.59
2022-10-02T10:51:30.717Z,101165.56
2022-10-02T10:54:22.862Z,101161.28
2022-10-02T10:57:18.586Z,101175.66
2022-10-02T11:00:04.451Z,101163.81
2022-10-02T11:02:39.929Z,101161.44
2022-10-02T11:05:28.088Z,101166.88
2022-10-02T11:08:07.066Z,101162.63
2022-10-02T11:10:42.511Z,101164.81
2022-10-02T11:13:35.270Z,101150.28
2022-10-02T11:16:16.710Z,101144.84
2022-10-02T11:19:05.301Z,101159.75
2022-10-02T11:21:51.844Z,101165.63
2022-10-02T11:24:42.895Z,101175.78
2022-10-02T11:27:27.279Z,101182.34
2022-10-02T11:30:38.250Z,101188.19
2022-10-02T11:33:27.137Z,101192.88
2022-10-02T11:36:24.254Z,101198.59
2022-10-02T11:39:15.482Z,101202.75
2022-10-02T11:42:13.374Z,101206.16
2022-10-02T11:44:51.488Z,101200.78
2022-10-02T11:47:40.634Z,101199.66
2022-10-02T11:50:23.544Z,101201.03
2022-10-02T11:53:09.063Z,101203.28
2022-10-02T11:56:01.171Z,101205.78
2022-10-02T11:58:34.161Z,101212.63
2022-10-02T12:01:22.628Z,101202.41
2022-10-02T12:04:09.663Z,101204.94
2022-10-02T12:07:15.132Z,101205.16
2022-10-02T12:10:23.944Z,101202.88
2022-10-02T12:13:16.041Z,101211.84
2022-10-02T12:15:58.214Z,101218.81
2022-10-02T12:18:43.868Z,101212.16
2022-10-02T12:21:53.582Z,101211.03
2022-10-02T12:25:21.096Z,101209.59
2022-10-02T12:28:06.564Z,101216.00
2022-10-02T12:31:01.365Z,101218.75
2022-10-02T12:33:41.718Z,101207.06
2022-10-02T12:36:34.879Z,101219.31
2022-10-02T12:39:22.326Z,101198.09
2022-10-02T12:41:54.679Z,101205.81
2022-10-02T12:44:46.204Z,101205.22
2022-10-02T12:47:35.636Z,101207.19
2022-10-02T12:50:22.289Z,101211.88
2022-10-02T12:53:10.677Z,101211.94
2022-10-02T12:55:59.163Z,101223.97
2022-10-02T12:58:46.302Z,101220.47
2022-10-02T13:01:42.027Z,101208.97
2022-10-02T13:04:45.741Z,101214.63
2022-10-02T13:07:57.281Z,101225.44
2022-10-02T13:10:37.604Z,101200.09
2022-10-02T13:13:21.000Z,101212.03
2022-10-02T13:15:47.624Z,101220.00
2022-10-02T13:18:26.863Z,101213.66
2022-10-02T13:21:04.280Z,101219.63
2022-10-02T13:23:50.916Z,101230.09
2022-10-02T13:26:53.382Z,101215.16
2022-10-02T13:29:44.140Z,101220.69
2022-10-02T13:32:32.299Z,101214.19
2022-10-02T13:35:46.058Z,101214.22
2022-10-02T13:38:43.779Z,101237.88
2022-10-02T13:41:13.923Z,101220.91
2022-10-02T13:43:58.492Z,101233.63
2022-10-02T13:46:59.910Z,101240.97
2022-10-02T13:49:57.020Z,101249.00
2022-10-02T13:52:52.706Z,101253.06
2022-10-02T13:55:25.944Z,101242.88
2022-10-02T13:57:58.431Z,101240.78
2022-10-02T14:00:51.121Z,101253.00
2022-10-02T14:03:40.001Z,101248.59
2022-10-02T14:06:45.325Z,101257.56
2022-10-02T14:09:16.900Z,101250.25
2022-10-02T14:11:58.389Z,101261.63
2022-10-02T14:14:47.249Z,101263.88
2022-10-02T14:17:57.559Z,101258.47
2022-10-02T14:21:08.024Z,101270.81
2022-10-02T14:24:05.766Z,101270.44
2022-10-02T14:27:19.368Z,101270.66
2022-10-02T14:30:03.967Z,101265.72
2022-10-02T14:32:36.334Z,101274.50
2022-10-02T14:35:24.954Z,101272.00
2022-10-02T14:38:29.270Z,101283.31
2022-10-02T14:40:58.074Z,101286.25
2022-10-02T14:43:56.686Z,101275.50
2022-10-02T14:46:53.761Z,101288.91
2022-10-02T14:49:39.292Z,101293.66
2022-10-02T14:52:18.280Z,101294.09
2022-10-02T14:55:15.718Z,101291.41
2022-10-02T14:58:06.963Z,101293.41
2022-10-02T15:01:06.967Z,101299.50
2022-10-02T15:04:01.516Z,101300.00
2022-10-02T15:06:47.118Z,101312.13
2022-10-02T15:09:24.585Z,101307.94
2022-10-02T15:12:09.923Z,101310.94
2022-10-02T15:14:55.181Z,101318.19
2022-10-02T15:17:55.584Z,101310.59
2022-10-02T15:20:40.631Z,101325.44
2022-10-02T15:23:15.084Z,101326.81
2022-10-02T15:25:50.678Z,101334.09
2022-10-02T15:28:37.194Z,101329.25
2022-10-02T15:31:25.979Z,101345.38
2022-10-02T15:34:14.618Z,101349.88
2022-10-02T15:37:00.537Z,101350.53
2022-10-02T15:39:49.679Z,101350.34
2022-10-02T15:42:40.815Z,101356.09
2022-10-02T15:45:27.761Z,101360.53
2022-10-02T15:48:12.894Z,101368.22
2022-10-02T15:50:47.386Z,101365.69
2022-10-02T15:53:45.152Z,101373.59
2022-10-02T15:56:14.761Z,101366.00
2022-10-02T15:58:41.303Z,101378.91
2022-10-02T16:01:14.058Z,101380.75
2022-10-02T16:03:50.927Z,101386.47
2022-10-02T16:06:39.219Z,101387.59
2022-10-02T16:09:24.470Z,101397.47
2022-10-02T16:12:15.918Z,101396.38
2022-10-02T16:15:00.638Z,101400.06
2022-10-02T16:17:39.558Z,101411.22
2022-10-02T16:20:18.430Z,101412.34
2022-10-02T16:22:51.354Z,101415.88
2022-10-02T16:25:45.257Z,101415.69
2022-10-02T16:28:32.555Z,101425.84
2022-10-02T16:31:05.257Z,101426.88
2022-10-02T16:33:57.839Z,101433.78
2022-10-02T16:36:34.371Z,101438.00
2022-10-02T16:39:21.146Z,101446.13
2022-10-02T16:42:05.179Z,101446.16
2022-10-02T16:44:54.735Z,101442.69
2022-10-02T16:47:45.621Z,101453.28
2022-10-02T16:50:12.150Z,101471.69
2022-10-02T16:52:45.792Z,101467.88
2022-10-02T16:55:25.438Z,101473.75
2022-10-02T16:58:02.695Z,101475.09
2022-10-02T17:00:35.200Z,101472.09
2022-10-02T17:03:19.225Z,101481.66
2022-10-02T17:05:54.107Z,101485.47
2022-10-02T17:08:42.139Z,101490.00
2022-10-02T17:11:28.057Z,101495.50
2022-10-02T17:14:05.385Z,101498.50
2022-10-02T17:16:53.215Z,101509.84
2022-10-02T17:19:45.882Z,101501.47
2022-10-02T17:22:28.796Z,101511.44
2022-10-02T17:25:27.329Z,101525.00
2022-10-02T17:27:56.878Z,101526.84
2022-10-02T17:30:27.413Z,101533.78
2022-10-02T17:32:54.200Z,101538.63
2022-10-02T17:35:42.951Z,101547.66
2022-10-02T17:38:43.307Z,101558.66
2022-10-02T17:41:24.692Z,101562.63
2022-10-02T17:44:12.764Z,101561.56
2022-10-02T17:46:58.788Z,101573.22
2022-10-02T17:49:59.189Z,101567.78
2022-10-02T17:53:21.420Z,101579.78
2022-10-02T17:56:28.155Z,101582.75
2022-10-02T17:59:03.843Z,101590.22
2022-10-02T18:02:17.725Z,101593.81
2022-10-02T18:05:15.406Z,101591.75
2022-10-02T18:07:52.531Z,101607.28
2022-10-02T18:10:32.362Z,101610.09
2022-10-02T18:13:05.598Z,101615.88
2022-10-02T18:16:18.752Z,101627.88
2022-10-02T18:19:16.318Z,101629.72
2022-10-02T18:22:16.847Z,101636.91
2022-10-02T18:24:57.443Z,101641.31
2022-10-02T18:27:42.400Z,101652.31
2022-10-02T18:30:20.421Z,101655.00
2022-10-02T18:33:09.367Z,101650.06
2022-10-02T18:35:50.361Z,101655.03
2022-10-02T18:38:16.958Z,101664.19
2022-10-02T18:41:21.096Z,101668.16
2022-10-02T18:44:02.557Z,101679.59
2022-10-02T18:46:45.931Z,101673.69
2022-10-02T18:49:21.253Z,101678.34
2022-10-02T18:52:16.742Z,101674.28
2022-10-02T18:54:43.698Z,101673.59
2022-10-02T18:57:29.155Z,101683.75
2022-10-02T19:00:24.724Z,101684.19
2022-10-02T19:03:10.177Z,101688.25
2022-10-02T19:05:41.974Z,101691.63
2022-10-02T19:08:46.085Z,101697.53
2022-10-02T19:11:19.624Z,101693.63
2022-10-02T19:13:49.029Z,101691.53
2022-10-02T19:16:24.723Z,101705.69
2022-10-02T19:19:19.422Z,101704.00
2022-10-02T19:21:46.583Z,101698.28
2022-10-02T19:24:18.739Z,101710.63
2022-10-02T19:26:52.169Z,101705.88
2022-10-02T19:29:27.629Z,101714.44
2022-10-02T19:31:57.983Z,101709.69
2022-10-02T19:34:31.069Z,101717.16
2022-10-02T19:37:04.698Z,101721.50
2022-10-02T19:39:31.306Z,101726.00
2022-10-02T19:42:03.210Z,101717.72
2022-10-02T19:44:40.462Z,101733.59
2022-10-02T19:47:31.495Z,101739.22
2022-10-02T19:50:03.390Z,101741.75
2022-10-02T19:52:53.527Z,101746.78
2022-10-02T19:55:22.444Z,101748.63
2022-10-02T19:57:54.168Z,101753.66
2022-10-02T20:00:21.109Z,101754.66
2022-10-02T20:02:52.008Z,101760.41
2022-10-02T20:05:22.721Z,101760.28
2022-10-02T20:07:52.857Z,101760.03
2022-10-02T20:10:31.099Z,101770.13
2022-10-02T20:13:28.185Z,101767.72
2022-10-02T20:16:21.774Z,101775.31
2022-10-02T20:18:50.783Z,101775.88
2022-10-02T20:21:26.265Z,101769.13
2022-10-02T20:23:57.515Z,101782.91
2022-10-02T20:26:29.734Z,101789.31
2022-10-02T20:29:05.773Z,101776.97
2022-10-02T20:31:56.605Z,101782.16
2022-10-02T20:34:33.596Z,101790.28
2022-10-02T20:37:08.354Z,101796.06
2022-10-02T20:39:49.669Z,101788.88
2022-10-02T20:42:33.720Z,101800.94
2022-10-02T20:45:00.382Z,101813.28
2022-10-02T20:47:45.643Z,101811.63
2022-10-02T20:50:31.521Z,101814.38
2022-10-02T20:53:16.239Z,101813.81
2022-10-02T20:56:04.722Z,101824.63
2022-10-02T20:59:15.263Z,101837.66
2022-10-02T21:02:10.654Z,101831.47
2022-10-02T21:04:49.353Z,101844.50
2022-10-02T21:07:35.297Z,101841.00
2022-10-02T21:10:51.799Z,101844.50
2022-10-02T21:13:33.167Z,101847.91
2022-10-02T21:16:10.797Z,101849.03
2022-10-02T21:19:05.013Z,101843.97
2022-10-02T21:21:53.963Z,101852.94
2022-10-02T21:24:26.719Z,101860.38
2022-10-02T21:27:02.412Z,101865.97
2022-10-02T21:29:54.762Z,101868.06
2022-10-02T21:32:40.002Z,101867.44
2022-10-02T21:35:30.469Z,101865.75
2022-10-02T21:38:13.087Z,101863.94
2022-10-02T21:40:48.632Z,101866.03
2022-10-02T21:43:33.719Z,101868.94
2022-10-02T21:46:36.010Z,101879.22
2022-10-02T21:49:20.608Z,101882.97
2022-10-02T21:52:05.782Z,101897.94
2022-10-02T21:54:38.588Z,101884.28
2022-10-02T21:57:40.234Z,101895.19
2022-10-02T22:00:25.447Z,101900.47
2022-10-02T22:03:27.780Z,101916.94
2022-10-02T22:06:41.878Z,101918.06
2022-10-02T22:09:11.374Z,101920.47
2022-10-02T22:11:44.137Z,101919.78
2022-10-02T22:14:27.545Z,101918.59
2022-10-02T22:17:04.589Z,101924.63
2022-10-02T22:19:34.211Z,101921.66
2022-10-02T22:22:26.018Z,101929.97
2022-10-02T22:25:17.693Z,101936.28
2022-10-02T22:28:13.524Z,101934.97
2022-10-02T22:30:55.311Z,101933.41
2022-10-02T22:33:24.679Z,101950.84
2022-10-02T22:36:21.123Z,101957.13
2022-10-02T22:38:53.228Z,101948.31
2022-10-02T22:41:34.309Z,101956.63
2022-10-02T22:44:12.384Z,101957.72
2022-10-02T22:46:48.196Z,101955.91
2022-10-02T22:49:33.290Z,101955.31
2022-10-02T22:52:18.315Z,101969.47
2022-10-02T22:55:04.819Z,101961.38
2022-10-02T22:57:47.369Z,101977.22
2022-10-02T23:00:18.793Z,101978.66
2022-10-02T23:02:50.414Z,101974.44
2022-10-02T23:05:23.574Z,101975.41
2022-10-02T23:07:59.722Z,101975.41
2022-10-02T23:10:38.217Z,101979.63
2022-10-02T23:13:23.408Z,101974.56
2022-10-02T23:16:08.806Z,101983.50
2022-10-02T23:18:49.425Z,101980.84
2022-10-02T23:21:27.790Z,101981.31
2022-10-02T23:24:06.302Z,101986.75
2022-10-02T23:26:43.102Z,101974.56
2022-10-02T23:29:25.848Z,101991.47
2022-10-02T23:32:21.831Z,101984.22
2022-10-02T23:35:00.286Z,101988.09
2022-10-02T23:37:26.897Z,101987.75
2022-10-02T23:40:05.849Z,101984.47
2022-10-02T23:42:39.997Z,101987.13
2022-10-02T23:45:30.517Z,101987.25
2022-10-02T23:48:00.683Z,101973.56
2022-10-02T23:50:37.207Z,101983.94
2022-10-02T23:53:28.393Z,101981.56
2022-10-02T23:56:24.183Z,101986.59
2022-10-02T23:59:06.072Z,101979.34
